Time;durP1;ratioP1;P1;durP2;ratioP2;P2;SDS_P1;SDS_P2;PMS_P1;PMS_P2;Temp;Humidity;BMP_temperature;BMP_pressure;BME280_temperature;BME280_humidity;BME280_pressure;Samples;Min_cycle;Max_cycle;Signal;HPM_P1;HPM_P2
2023/07/14 00:01:40;;;;;;;2.78;2.53;;;15.30;1.00;;;;;;4993391;28;20207;-85
2023/07/14 00:04:16;;;;;;;2.70;2.50;;;15.00;1.00;;;;;;4994836;28;20204;-84
2023/07/14 00:06:45;;;;;;;3.55;2.70;;;15.00;1.00;;;;;;4977404;28;20176;-85
2023/07/14 00:09:29;;;;;;;2.83;2.60;;;15.10;1.00;;;;;;4976376;28;20183;-85
2023/07/14 00:11:56;;;;;;;3.03;2.60;;;;;;;;;;4976958;28;20661;-85
2023/07/14 00:14:21;;;;;;;5.75;3.40;;;14.90;99.90;;;;;;4978075;28;20265;-85
2023/07/14 00:16:47;;;;;;;3.65;3.10;;;15.30;99.90;;;;;;4977662;28;20184;-85
2023/07/14 00:19:15;;;;;;;3.20;2.90;;;15.20;1.00;;;;;;4995159;28;20310;-85
2023/07/14 00:21:42;;;;;;;3.40;3.15;;;15.10;99.90;;;;;;4976128;28;20204;-85
2023/07/14 00:24:13;;;;;;;3.08;2.55;;;15.10;99.90;;;;;;4995124;28;20334;-85
2023/07/14 00:26:40;;;;;;;2.60;2.40;;;15.00;1.00;;;;;;4994857;28;20203;-83
2023/07/14 00:29:25;;;;;;;4.10;2.53;;;15.00;1.00;;;;;;4977931;28;20298;-85
2023/07/14 00:31:51;;;;;;;3.42;2.75;;;;;;;;;;4978261;28;20176;-83
2023/07/14 00:34:17;;;;;;;2.90;2.63;;;;;;;;;;4976739;28;20219;-84
2023/07/14 00:36:43;;;;;;;3.38;2.78;;;;;;;;;;4996225;28;20183;-85
2023/07/14 00:39:09;;;;;;;3.17;2.88;;;;;;;;;;4981711;28;20195;-84
2023/07/14 00:41:35;;;;;;;3.03;2.72;;;;;;;;;;4980760;28;20204;-84
2023/07/14 00:44:01;;;;;;;3.05;2.70;;;;;;;;;;4981307;28;20709;-84
2023/07/14 00:46:32;;;;;;;3.20;2.90;;;14.50;99.90;;;;;;4997913;28;20271;-85
2023/07/14 00:49:02;;;;;;;2.78;2.58;;;14.50;1.00;;;;;;4982425;28;20323;-86
2023/07/14 00:51:31;;;;;;;3.38;2.35;;;13.30;1.00;;;;;;4981579;28;20230;-85
2023/07/14 00:53:56;;;;;;;3.42;2.75;;;14.90;99.90;;;;;;5000361;28;20198;-84
2023/07/14 00:56:31;;;;;;;4.28;2.95;;;14.80;1.00;;;;;;4999505;28;20180;-85
2023/07/14 00:58:58;;;;;;;3.50;2.80;;;14.40;99.90;;;;;;4982236;28;20205;-84
2023/07/14 01:01:24;;;;;;;3.00;2.72;;;14.40;99.90;;;;;;4981932;28;20204;-84
2023/07/14 01:03:55;;;;;;;3.63;3.13;;;14.30;1.00;;;;;;4982034;28;20176;-85
2023/07/14 01:06:25;;;;;;;3.30;2.88;;;14.30;99.90;;;;;;4981001;28;21064;-85
2023/07/14 01:08:59;;;;;;;3.15;2.55;;;14.40;1.00;;;;;;4981474;28;20180;-85
2023/07/14 01:11:45;;;;;;;3.65;3.03;;;14.40;1.00;;;;;;4981008;28;20237;-84
2023/07/14 01:14:24;;;;;;;2.72;2.53;;;14.80;1.00;;;;;;4978718;28;20209;-84
2023/07/14 01:16:51;;;;;;;2.85;2.65;;;14.10;1.00;;;;;;4978339;28;20212;-84
2023/07/14 01:19:33;;;;;;;3.67;2.90;;;13.90;99.90;;;;;;4999939;28;20192;-85
2023/07/14 01:22:10;;;;;;;3.28;2.70;;;14.10;1.00;;;;;;4981561;28;20210;-84
2023/07/14 01:24:45;;;;;;;3.25;2.50;;;14.20;1.00;;;;;;4981736;28;20211;-85
2023/07/14 01:27:12;;;;;;;2.70;2.50;;;;;;;;;;4981225;28;20523;-84
2023/07/14 01:29:38;;;;;;;3.13;2.83;;;14.10;1.00;;;;;;4997619;28;20183;-85
2023/07/14 01:32:18;;;;;;;2.65;2.45;;;14.00;1.00;;;;;;4998391;28;20194;-85
2023/07/14 01:34:44;;;;;;;3.30;2.72;;;14.30;1.00;;;;;;4980779;28;20322;-84
2023/07/14 01:37:14;;;;;;;3.72;2.75;;;14.40;99.90;;;;;;4978993;28;20258;-85
2023/07/14 01:39:40;;;;;;;3.58;2.53;;;;;;;;;;4980342;28;20184;-85
2023/07/14 01:42:06;;;;;;;3.28;2.97;;;;;;;;;;4980461;28;20755;-85
2023/07/14 01:44:33;;;;;;;3.50;2.70;;;;;;;;;;4980974;28;20207;-84
2023/07/14 01:47:00;;;;;;;3.95;2.95;;;14.20;1.00;;;;;;4997897;28;20587;-84
2023/07/14 01:49:26;;;;;;;3.35;2.70;;;;;;;;;;4980378;28;20179;-86
2023/07/14 01:51:52;;;;;;;3.38;3.08;;;;;;;;;;4981320;28;20197;-84
2023/07/14 01:54:49;;;;;;;3.28;2.97;;;13.60;1.00;;;;;;4980398;28;20199;-84
2023/07/14 01:57:20;;;;;;;3.38;2.60;;;13.30;1.00;;;;;;4996171;28;20200;-84
2023/07/14 01:59:51;;;;;;;3.17;2.88;;;13.40;1.00;;;;;;4981071;28;20200;-85
2023/07/14 02:02:24;;;;;;;3.22;2.92;;;13.50;1.00;;;;;;4996075;28;20200;-84
2023/07/14 02:04:51;;;;;;;4.82;3.25;;;13.60;99.90;;;;;;4979998;28;20206;-84
2023/07/14 02:07:18;;;;;;;3.13;2.67;;;13.30;1.00;;;;;;4998281;28;20315;-84
2023/07/14 02:09:44;;;;;;;3.15;2.88;;;13.60;99.90;;;;;;4981244;28;20226;-84
2023/07/14 02:12:16;;;;;;;4.45;3.05;;;13.70;1.00;;;;;;4997680;28;20191;-84
2023/07/14 02:15:02;;;;;;;3.80;3.03;;;13.40;1.00;;;;;;4996794;28;20255;-84
2023/07/14 02:17:31;;;;;;;3.38;2.78;;;13.50;80.20;;;;;;4979792;28;20179;-84
2023/07/14 02:19:58;;;;;;;5.07;2.85;;;13.50;1.00;;;;;;4996432;28;20184;-84
2023/07/14 02:22:24;;;;;;;4.05;2.60;;;;;;;;;;4997150;28;21198;-84
2023/07/14 02:24:51;;;;;;;4.40;2.72;;;13.40;1.00;;;;;;4980680;28;20227;-84
2023/07/14 02:27:17;;;;;;;2.95;2.65;;;13.80;1.00;;;;;;4979948;28;20983;-84
2023/07/14 02:29:43;;;;;;;3.20;2.95;;;;;;;;;;4996866;28;20172;-85
2023/07/14 02:32:35;;;;;;;3.25;2.95;;;14.00;1.00;;;;;;4995532;28;20266;-85
2023/07/14 02:35:10;;;;;;;3.00;2.80;;;13.60;99.90;;;;;;4980669;28;20287;-84
2023/07/14 02:38:02;;;;;;;4.07;3.40;;;13.70;99.90;;;;;;4996101;28;20178;-84
2023/07/14 02:40:35;;;;;;;3.00;2.70;;;13.70;99.90;;;;;;4974795;28;20175;-84
2023/07/14 02:43:04;;;;;;;3.75;3.15;;;13.90;1.00;;;;;;4979614;28;20237;-84
2023/07/14 02:45:33;;;;;;;3.22;2.75;;;13.50;99.90;;;;;;4980687;28;20196;-85
2023/07/14 02:48:01;;;;;;;4.20;2.80;;;13.80;99.90;;;;;;4978427;28;20188;-84
2023/07/14 02:50:27;;;;;;;4.18;3.05;;;13.60;99.90;;;;;;4978571;28;21007;-84
2023/07/14 02:52:53;;;;;;;4.00;3.30;;;;;;;;;;4980791;28;20179;-85
2023/07/14 02:55:18;;;;;;;3.60;3.15;;;13.70;61.70;;;;;;4978142;28;20196;-84
2023/07/14 02:57:44;;;;;;;3.53;3.15;;;;;;;;;;4979713;28;21090;-85
2023/07/14 03:00:11;;;;;;;3.58;2.80;;;;;;;;;;4980072;28;20187;-85
2023/07/14 03:02:38;;;;;;;4.40;3.10;;;13.60;99.90;;;;;;4979616;28;20200;-85
2023/07/14 03:05:04;;;;;;;5.40;3.00;;;13.60;99.90;;;;;;4997316;28;20203;-84
2023/07/14 03:07:32;;;;;;;4.65;3.25;;;;;;;;;;4998082;28;20180;-85
2023/07/14 03:09:58;;;;;;;3.88;3.40;;;13.50;99.90;;;;;;4979786;28;20638;-84
2023/07/14 03:12:23;;;;;;;11.45;3.40;;;13.70;99.90;;;;;;4978418;28;20194;-84
2023/07/14 03:14:50;;;;;;;3.30;3.00;;;;;;;;;;4979798;28;20293;-84
2023/07/14 03:17:16;;;;;;;3.65;3.35;;;13.20;1.00;;;;;;4979080;28;20190;-84
2023/07/14 03:19:41;;;;;;;4.43;3.42;;;13.60;84.00;;;;;;4978327;28;20184;-84
2023/07/14 03:22:07;;;;;;;3.30;3.00;;;;;;;;;;4978537;28;20212;-85
2023/07/14 03:24:33;;;;;;;3.78;3.38;;;;;;;;;;4979786;28;20203;-83
2023/07/14 03:26:59;;;;;;;4.55;3.10;;;;;;;;;;4995809;28;20180;-85
2023/07/14 03:29:25;;;;;;;4.63;3.65;;;;;;;;;;4995275;28;20185;-85
2023/07/14 03:31:51;;;;;;;3.30;2.95;;;13.20;99.90;;;;;;4994528;28;20684;-85
2023/07/14 03:34:17;;;;;;;4.43;3.50;;;;;;;;;;4976081;28;20215;-84
2023/07/14 03:36:43;;;;;;;4.57;3.38;;;;;;;;;;4979075;28;20650;-85
2023/07/14 03:39:22;;;;;;;3.53;3.22;;;13.80;1.00;;;;;;4977204;28;20184;-84
2023/07/14 03:41:48;;;;;;;6.40;4.07;;;;;;;;;;4977645;28;20572;-82
2023/07/14 03:44:14;;;;;;;3.67;3.00;;;;;;;;;;4978806;28;20202;-83
2023/07/14 03:46:40;;;;;;;4.22;2.95;;;;;;;;;;4978388;28;20176;-85
2023/07/14 03:49:06;;;;;;;3.85;3.28;;;;;;;;;;4979471;28;20705;-84
2023/07/14 03:51:32;;;;;;;3.30;3.00;;;;;;;;;;4977535;28;20184;-84
2023/07/14 03:53:58;;;;;;;5.68;2.95;;;13.90;91.30;;;;;;4995954;28;20215;-85
2023/07/14 03:56:25;;;;;;;4.22;2.95;;;13.90;99.90;;;;;;4978940;28;20322;-85
2023/07/14 03:58:51;;;;;;;5.63;3.30;;;13.50;99.90;;;;;;4977433;28;20203;-85
2023/07/14 04:01:17;;;;;;;5.00;2.92;;;;;;;;;;4978415;28;20214;-85
2023/07/14 04:03:44;;;;;;;3.20;2.90;;;;;;;;;;4979729;28;20731;-84
2023/07/14 04:06:10;;;;;;;2.60;2.40;;;;;;;;;;4979516;28;20567;-86
2023/07/14 04:08:42;;;;;;;4.18;3.13;;;14.20;99.90;;;;;;4980807;28;20291;-84
2023/07/14 04:11:08;;;;;;;3.80;3.28;;;14.30;1.00;;;;;;4997843;28;20229;-84
2023/07/14 04:13:34;;;;;;;5.32;3.25;;;14.40;1.00;;;;;;4983076;28;20567;-85
2023/07/14 04:16:00;;;;;;;3.35;3.05;;;14.10;99.90;;;;;;4999041;28;20265;-84
2023/07/14 04:18:26;;;;;;;7.00;3.97;;;14.10;99.90;;;;;;4984862;28;20179;-84
2023/07/14 04:20:52;;;;;;;3.97;3.50;;;;;;;;;;4982166;28;20210;-84
2023/07/14 04:23:18;;;;;;;6.18;3.58;;;14.40;1.00;;;;;;4982474;28;20180;-84
2023/07/14 04:25:48;;;;;;;3.70;3.40;;;14.40;99.90;;;;;;4982481;28;20250;-85
2023/07/14 04:28:14;;;;;;;4.65;3.97;;;14.40;3.30;;;;;;4981811;28;20549;-84
2023/07/14 04:30:40;;;;;;;5.15;3.50;;;;;;;;;;4999237;28;20183;-84
2023/07/14 04:33:06;;;;;;;4.15;3.13;;;;;;;;;;4982259;28;20662;-85
2023/07/14 04:35:32;;;;;;;5.72;3.47;;;;;;;;;;4982219;28;20213;-85
2023/07/14 04:37:58;;;;;;;4.53;3.53;;;;;;;;;;5000449;28;20247;-84
2023/07/14 04:40:24;;;;;;;5.75;3.40;;;14.60;99.90;;;;;;4982441;28;20187;-85
2023/07/14 04:42:50;;;;;;;3.65;2.90;;;;;;;;;;4982568;28;20203;-85
2023/07/14 04:45:16;;;;;;;3.72;3.00;;;;;;;;;;5000036;28;20223;-85
2023/07/14 04:47:43;;;;;;;4.20;3.17;;;;;;;;;;4982289;28;20179;-84
2023/07/14 04:50:09;;;;;;;4.78;3.05;;;15.40;1.00;;;;;;4980519;28;20246;-85
2023/07/14 04:52:35;;;;;;;3.25;2.95;;;15.30;1.00;;;;;;4981187;28;20682;-85
2023/07/14 04:55:01;;;;;;;3.45;3.15;;;;;;;;;;4999501;28;20262;-85
2023/07/14 04:57:27;;;;;;;3.65;3.35;;;;;;;;;;4997428;28;20211;-84
2023/07/14 04:59:52;;;;;;;3.13;2.63;;;15.50;1.00;;;;;;4981978;28;20282;-85
2023/07/14 05:02:18;;;;;;;6.35;3.60;;;;;;;;;;4980253;28;21006;-84
2023/07/14 05:04:44;;;;;;;3.53;2.88;;;;;;;;;;4997910;28;20228;-85
2023/07/14 05:07:10;;;;;;;3.25;2.75;;;17.40;1.00;;;;;;4981211;28;20186;-84
2023/07/14 05:09:36;;;;;;;7.15;3.03;;;;;;;;;;5000459;28;20191;-85
2023/07/14 05:12:02;;;;;;;2.60;2.40;;;;;;;;;;4998534;28;20202;-84
2023/07/14 05:14:28;;;;;;;3.67;2.40;;;;;;;;;;4983191;28;20201;-84
2023/07/14 05:16:54;;;;;;;2.67;2.47;;;;;;;;;;4999485;28;20249;-85
2023/07/14 05:19:20;;;;;;;2.42;2.20;;;21.40;1.00;;;;;;4997552;28;20643;-85
2023/07/14 05:21:46;;;;;;;3.35;2.42;;;21.40;1.00;;;;;;4983335;28;20262;-85
2023/07/14 05:24:12;;;;;;;2.20;2.00;;;;;;;;;;4979705;28;20873;-85
2023/07/14 05:26:38;;;;;;;4.60;2.38;;;;;;;;;;4999446;28;20266;-85
2023/07/14 05:29:05;;;;;;;3.45;2.00;;;;;;;;;;5000051;28;20680;-85
2023/07/14 05:31:32;;;;;;;4.13;2.13;;;;;;;;;;4997511;28;20271;-85
2023/07/14 05:33:58;;;;;;;2.35;2.15;;;;;;;;;;4982997;28;20245;-85
2023/07/14 05:36:25;;;;;;;3.17;2.08;;;;;;;;;;4999228;28;20206;-85
2023/07/14 05:38:51;;;;;;;4.18;1.80;;;;;;;;;;4981902;28;20267;-85
2023/07/14 05:41:17;;;;;;;2.75;1.88;;;;;;;;;;4982098;28;20785;-85
2023/07/14 05:43:43;;;;;;;1.98;1.77;;;;;;;;;;4980047;28;20635;-87
2023/07/14 05:46:09;;;;;;;2.17;1.80;;;25.70;1.00;;;;;;4979854;28;20242;-88
2023/07/14 05:48:35;;;;;;;2.33;1.83;;;26.00;1.00;;;;;;4998123;28;20187;-86
2023/07/14 05:51:01;;;;;;;1.85;1.65;;;;;;;;;;4979365;28;20191;-86
2023/07/14 05:53:27;;;;;;;4.10;1.92;;;;;;;;;;4981266;28;20180;-87
2023/07/14 05:55:55;;;;;;;2.25;1.52;;;;;;;;;;4997871;28;20226;-87
2023/07/14 05:58:21;;;;;;;1.90;1.52;;;;;;;;;;4979740;28;20665;-87
2023/07/14 06:00:47;;;;;;;5.22;2.45;;;;;;;;;;4979304;28;20175;-86
2023/07/14 06:03:18;;;;;;;5.78;1.88;;;27.70;47.90;;;;;;4995581;28;20184;-87
2023/07/14 06:05:44;;;;;;;10.52;2.20;;;;;;;;;;4981159;28;20545;-87
2023/07/14 06:08:10;;;;;;;6.80;2.90;;;;;;;;;;4979340;28;20682;-87
2023/07/14 06:10:36;;;;;;;6.75;2.67;;;28.70;1.00;;;;;;4981024;28;20181;-86
2023/07/14 06:13:03;;;;;;;2.63;1.70;;;;;;;;;;4979838;28;20184;-88
2023/07/14 06:15:29;;;;;;;3.03;1.88;;;29.70;1.00;;;;;;4980364;28;20196;-87
2023/07/14 06:17:55;;;;;;;2.58;1.98;;;;;;;;;;4980190;28;20544;-87
2023/07/14 06:20:21;;;;;;;4.50;2.42;;;;;;;;;;4996627;28;20259;-87
2023/07/14 06:22:48;;;;;;;3.88;2.05;;;;;;;;;;4995463;28;21207;-87
2023/07/14 06:25:14;;;;;;;3.50;1.85;;;;;;;;;;4979104;28;20223;-87
2023/07/14 06:27:40;;;;;;;2.35;1.90;;;;;;;;;;4996578;28;20212;-85
2023/07/14 06:30:07;;;;;;;3.22;2.17;;;29.70;1.00;;;;;;4995164;28;20218;-88
2023/07/14 06:32:33;;;;;;;3.42;2.00;;;;;;;;;;4997585;28;20176;-89
2023/07/14 06:34:59;;;;;;;2.50;1.85;;;;;;;;;;4981114;28;20208;-88
2023/07/14 06:37:25;;;;;;;3.55;2.20;;;30.40;99.60;;;;;;4998342;28;20206;-88
2023/07/14 06:39:51;;;;;;;3.80;2.05;;;;;;;;;;4979636;28;20209;-87
2023/07/14 06:42:18;;;;;;;3.55;2.08;;;;;;;;;;4998982;28;20200;-86
2023/07/14 06:44:44;;;;;;;2.72;1.80;;;;;;;;;;4996559;28;20211;-88
2023/07/14 06:47:10;;;;;;;2.22;2.00;;;;;;;;;;4980449;28;20207;-88
2023/07/14 06:49:35;;;;;;;2.75;2.00;;;29.60;1.00;;;;;;4981046;28;20226;-88
2023/07/14 06:52:01;;;;;;;2.88;1.80;;;31.20;1.00;;;;;;4979263;28;20243;-88
2023/07/14 06:54:27;;;;;;;3.90;2.10;;;;;;;;;;4980148;28;20204;-89
2023/07/14 06:56:56;;;;;;;2.92;2.20;;;32.20;1.00;;;;;;4980260;28;20188;-89
2023/07/14 06:59:22;;;;;;;3.55;2.35;;;;;;;;;;4980490;28;20657;-89
2023/07/14 07:01:48;;;;;;;2.47;2.28;;;;;;;;;;4997841;28;20196;-89
2023/07/14 07:04:15;;;;;;;2.28;1.95;;;;;;;;;;4998705;28;20715;-90
2023/07/14 07:06:41;;;;;;;2.10;1.90;;;;;;;;;;4982702;28;20183;-89
2023/07/14 07:09:08;;;;;;;2.83;1.98;;;32.60;1.00;;;;;;4979212;28;20265;-90
2023/07/14 07:11:34;;;;;;;4.22;2.60;;;;;;;;;;4997995;28;20184;-89
2023/07/14 07:14:00;;;;;;;3.50;2.60;;;;;;;;;;4977368;28;20191;-90
2023/07/14 07:16:25;;;;;;;2.50;2.30;;;33.00;1.00;;;;;;4996113;28;20199;-90
2023/07/14 07:18:51;;;;;;;2.95;2.22;;;33.70;1.00;;;;;;4978435;28;20279;-88
2023/07/14 07:21:16;;;;;;;2.65;2.20;;;34.10;1.00;;;;;;4978098;28;20223;-90
2023/07/14 07:23:42;;;;;;;2.65;2.00;;;34.50;1.00;;;;;;4999328;28;20206;-88
2023/07/14 07:26:08;;;;;;;3.10;2.25;;;35.10;1.00;;;;;;4978165;28;20742;-89
2023/07/14 07:28:34;;;;;;;3.85;3.08;;;;;;;;;;4984797;28;20210;-88
2023/07/14 07:31:09;;;;;;;5.43;2.60;;;31.50;1.00;;;;;;5002789;28;20693;-90
2023/07/14 07:33:35;;;;;;;3.97;3.10;;;30.00;1.00;;;;;;4975976;28;20575;-90
2023/07/14 07:36:14;;;;;;;4.80;3.40;;;;;;;;;;4976430;28;20743;-89
2023/07/14 07:38:44;;;;;;;4.25;2.92;;;27.40;1.00;;;;;;4977484;28;20187;-89
2023/07/14 07:41:10;;;;;;;4.30;2.92;;;26.70;1.00;;;;;;4994529;28;20662;-88
2023/07/14 07:43:36;;;;;;;4.60;3.40;;;25.00;1.00;;;;;;4978890;28;20206;-88
2023/07/14 07:46:03;;;;;;;4.72;3.00;;;25.20;1.00;;;;;;4975880;28;20211;-88
2023/07/14 07:48:29;;;;;;;4.20;2.92;;;;;;;;;;4998134;28;20175;-88
2023/07/14 07:50:55;;;;;;;3.60;2.72;;;24.20;1.00;;;;;;4979189;28;20194;-88
2023/07/14 07:53:20;;;;;;;3.53;2.25;;;23.70;1.00;;;;;;4976413;28;20191;-89
2023/07/14 07:55:57;;;;;;;3.80;2.28;;;24.10;1.00;;;;;;4999669;28;20211;-86
2023/07/14 07:58:26;;;;;;;4.63;2.50;;;;;;;;;;4979942;28;20284;-83
2023/07/14 08:01:01;;;;;;;4.80;2.33;;;23.90;1.00;;;;;;4975460;28;20176;-83
2023/07/14 08:03:27;;;;;;;6.93;2.58;;;23.10;1.00;;;;;;4977642;28;20603;-82
2023/07/14 08:06:01;;;;;;;3.17;2.30;;;23.10;1.00;;;;;;4993994;28;20207;-82
2023/07/14 08:08:28;;;;;;;2.63;2.20;;;;;;;;;;4975828;28;20724;-81
2023/07/14 08:10:53;;;;;;;3.47;2.45;;;23.40;1.00;;;;;;4976313;28;20631;-82
2023/07/14 08:13:19;;;;;;;4.05;2.53;;;23.00;1.00;;;;;;4992194;28;20191;-83
2023/07/14 08:15:45;;;;;;;3.95;2.47;;;;;;;;;;4977002;28;20267;-82
2023/07/14 08:18:11;;;;;;;3.83;2.78;;;;;;;;;;4994087;28;20179;-82
2023/07/14 08:20:37;;;;;;;3.47;2.45;;;23.20;99.90;;;;;;4974446;28;20188;-82
2023/07/14 08:23:05;;;;;;;3.42;2.58;;;23.30;98.70;;;;;;4992942;28;20227;-84
2023/07/14 08:25:31;;;;;;;3.20;2.28;;;23.40;89.90;;;;;;4978780;28;20196;-83
2023/07/14 08:27:57;;;;;;;3.85;2.00;;;;;;;;;;4993573;28;20181;-83
2023/07/14 08:30:23;;;;;;;2.33;1.98;;;23.30;1.00;;;;;;4997157;28;20254;-85
2023/07/14 08:32:49;;;;;;;7.95;2.35;;;;;;;;;;4981381;28;20408;-83
2023/07/14 08:35:17;;;;;;;2.25;2.05;;;23.00;99.90;;;;;;4978901;28;20898;-84
2023/07/14 08:37:43;;;;;;;3.70;2.10;;;;;;;;;;4979186;28;20258;-85
2023/07/14 08:40:12;;;;;;;3.78;2.25;;;23.00;87.50;;;;;;4979280;28;20180;-84
2023/07/14 08:43:00;;;;;;;4.32;2.30;;;22.80;1.00;;;;;;4980084;28;20196;-85
2023/07/14 08:45:44;;;;;;;2.60;1.92;;;22.70;1.00;;;;;;4980237;28;20204;-86
2023/07/14 08:48:25;;;;;;;3.05;2.00;;;22.70;62.90;;;;;;4979601;28;21132;-85
2023/07/14 08:50:54;;;;;;;3.13;2.15;;;22.60;99.90;;;;;;4997023;28;20176;-85
2023/07/14 08:53:25;;;;;;;3.05;2.00;;;22.60;99.90;;;;;;4996243;28;20177;-85
2023/07/14 08:55:53;;;;;;;2.30;2.10;;;22.70;99.90;;;;;;4979344;28;20192;-84
2023/07/14 08:58:24;;;;;;;3.83;2.28;;;22.70;99.90;;;;;;4980623;28;20658;-83
2023/07/14 09:00:50;;;;;;;5.03;2.15;;;;;;;;;;4982422;28;20178;-85
2023/07/14 09:03:26;;;;;;;3.38;1.83;;;23.10;1.00;;;;;;5000153;28;20191;-85
2023/07/14 09:05:57;;;;;;;4.05;1.90;;;22.50;99.90;;;;;;4999432;28;20195;-84
2023/07/14 09:08:27;;;;;;;4.13;2.10;;;22.80;99.90;;;;;;4984210;28;20186;-85
2023/07/14 09:10:53;;;;;;;3.35;1.95;;;;;;;;;;4981695;28;20169;-83
2023/07/14 09:13:43;;;;;;;3.47;2.30;;;23.00;99.90;;;;;;4998872;28;20171;-83
2023/07/14 09:16:11;;;;;;;3.83;2.05;;;23.10;99.90;;;;;;4980755;28;20236;-83
2023/07/14 09:18:37;;;;;;;3.63;1.90;;;;;;;;;;4981237;28;20188;-81
2023/07/14 09:21:39;;;;;;;3.90;1.90;;;23.40;1.00;;;;;;4968390;28;20580;-84
2023/07/14 09:24:12;;;;;;;5.35;2.40;;;23.30;87.90;;;;;;4994563;28;20238;-83
2023/07/14 09:26:41;;;;;;;2.58;1.73;;;23.40;1.00;;;;;;4978537;28;20255;-83
2023/07/14 09:29:20;;;;;;;1.90;1.65;;;23.70;1.00;;;;;;4977308;28;20963;-83
2023/07/14 09:31:56;;;;;;;3.08;2.05;;;23.80;1.00;;;;;;4977753;28;20189;-83
2023/07/14 09:34:25;;;;;;;2.83;1.80;;;23.50;1.00;;;;;;4978963;28;20203;-84
2023/07/14 09:36:52;;;;;;;3.97;2.30;;;23.80;83.10;;;;;;4996126;28;20408;-84
2023/07/14 09:39:41;;;;;;;2.47;1.70;;;23.80;58.10;;;;;;4976985;28;20224;-85
2023/07/14 09:42:13;;;;;;;1.83;1.60;;;24.00;1.00;;;;;;4975115;28;20952;-83
2023/07/14 09:44:38;;;;;;;2.60;1.90;;;24.10;1.00;;;;;;4984870;28;20192;-84
2023/07/14 09:47:06;;;;;;;3.08;1.98;;;24.20;93.40;;;;;;4974444;28;20448;-84
2023/07/14 09:49:46;;;;;;;2.63;1.77;;;23.60;82.90;;;;;;4974845;28;20171;-84
2023/07/14 09:52:20;;;;;;;3.63;1.83;;;24.00;83.80;;;;;;4977316;28;20187;-83
2023/07/14 09:54:55;;;;;;;3.47;1.98;;;23.70;1.00;;;;;;4988815;28;20229;-84
2023/07/14 09:57:25;;;;;;;1.85;1.58;;;23.70;98.70;;;;;;4991814;28;20642;-84
2023/07/14 09:59:59;;;;;;;5.28;2.17;;;23.70;79.40;;;;;;4993525;28;20203;-84
2023/07/14 10:02:31;;;;;;;4.80;2.38;;;23.70;1.00;;;;;;4975765;28;20254;-83
2023/07/14 10:05:03;;;;;;;3.30;2.08;;;23.80;57.90;;;;;;4979291;28;20199;-84
2023/07/14 10:07:47;;;;;;;2.38;1.98;;;23.80;88.40;;;;;;4973931;28;20180;-84
2023/07/14 10:10:19;;;;;;;3.50;1.70;;;24.00;81.00;;;;;;4995483;28;20175;-84
2023/07/14 10:12:48;;;;;;;2.90;1.90;;;23.60;63.60;;;;;;4992665;28;20179;-84
2023/07/14 10:15:30;;;;;;;2.55;2.10;;;23.60;91.90;;;;;;4992218;28;20210;-85
2023/07/14 10:18:17;;;;;;;3.78;2.08;;;23.80;1.00;;;;;;4980607;28;20188;-85
2023/07/14 10:20:57;;;;;;;3.17;1.90;;;23.70;83.10;;;;;;4977959;28;20195;-86
2023/07/14 10:23:24;;;;;;;3.40;2.00;;;23.90;84.80;;;;;;4985842;28;20180;-86
2023/07/14 10:25:53;;;;;;;3.17;2.03;;;24.20;70.80;;;;;;4975113;28;20294;-85
2023/07/14 10:28:38;;;;;;;2.30;1.70;;;24.20;1.00;;;;;;4984010;28;20176;-85
2023/07/14 10:31:33;;;;;;;2.92;1.95;;;24.30;99.90;;;;;;4965815;28;20188;-87
2023/07/14 10:33:58;;;;;;;5.13;2.00;;;24.80;1.00;;;;;;4975868;28;20213;-85
2023/07/14 10:36:37;;;;;;;2.42;1.60;;;24.50;75.90;;;;;;4976987;28;20183;-84
2023/07/14 10:39:36;;;;;;;3.15;2.15;;;24.50;77.60;;;;;;4979476;28;20183;-83
2023/07/14 10:42:04;;;;;;;3.47;2.22;;;24.90;91.80;;;;;;4977338;28;20251;-84
2023/07/14 10:44:37;;;;;;;1.98;1.88;;;25.20;1.00;;;;;;4996905;28;20602;-84
2023/07/14 10:47:14;;;;;;;2.17;1.98;;;25.30;1.00;;;;;;4978843;28;20275;-85
2023/07/14 10:49:52;;;;;;;2.65;2.10;;;25.40;1.00;;;;;;4978392;28;20234;-85
2023/07/14 10:52:39;;;;;;;4.15;2.05;;;25.70;99.90;;;;;;4978476;28;20184;-85
2023/07/14 10:55:21;;;;;;;5.95;2.20;;;25.70;59.30;;;;;;4971128;28;20591;-83
2023/07/14 10:58:04;;;;;;;3.03;2.20;;;25.70;73.40;;;;;;4978765;28;20181;-84
2023/07/14 11:00:52;;;;;;;3.30;2.08;;;25.60;59.50;;;;;;4976618;28;20192;-84
2023/07/14 11:03:40;;;;;;;2.60;1.80;;;25.70;72.30;;;;;;4988265;28;20190;-83
2023/07/14 11:06:23;;;;;;;2.85;2.20;;;25.90;40.30;;;;;;4994678;28;20688;-84
2023/07/14 11:08:55;;;;;;;2.63;1.98;;;25.70;42.40;;;;;;4978791;28;20592;-84
2023/07/14 11:11:51;;;;;;;4.13;2.13;;;25.80;35.50;;;;;;4995544;28;20679;-85
2023/07/14 11:14:17;;;;;;;2.17;1.85;;;;;;;;;;4978911;28;20202;-85
2023/07/14 11:17:01;;;;;;;2.42;2.10;;;26.00;25.80;;;;;;4990817;28;20183;-85
2023/07/14 11:19:36;;;;;;;4.20;2.33;;;25.90;36.80;;;;;;4975814;28;20180;-84
2023/07/14 11:22:20;;;;;;;2.13;1.92;;;26.00;39.60;;;;;;4974658;28;20239;-83
2023/07/14 11:25:12;;;;;;;3.63;2.15;;;26.00;47.30;;;;;;4973341;28;20207;-85
2023/07/14 11:28:11;;;;;;;2.95;2.00;;;25.80;57.80;;;;;;4980469;28;20203;-83
2023/07/14 11:30:41;;;;;;;3.88;2.00;;;25.60;1.00;;;;;;4998047;28;20673;-84
2023/07/14 11:33:27;;;;;;;2.72;2.25;;;25.40;44.70;;;;;;4983937;28;20281;-86
2023/07/14 11:36:08;;;;;;;3.03;2.30;;;25.80;30.10;;;;;;4993223;28;20272;-85
2023/07/14 11:38:56;;;;;;;3.22;2.30;;;25.90;33.70;;;;;;4978614;28;20183;-84
2023/07/14 11:41:22;;;;;;;3.33;2.35;;;25.60;23.40;;;;;;4978760;28;20657;-85
2023/07/14 11:43:49;;;;;;;3.47;1.98;;;25.20;26.80;;;;;;4980021;28;20649;-84
2023/07/14 11:46:19;;;;;;;2.47;2.20;;;25.10;32.70;;;;;;4979831;28;20662;-87
2023/07/14 11:48:53;;;;;;;3.10;2.80;;;25.20;31.50;;;;;;4974446;28;20180;-85
2023/07/14 11:51:42;;;;;;;3.42;2.22;;;25.20;38.10;;;;;;4988067;28;20192;-86
2023/07/14 11:54:18;;;;;;;2.83;2.35;;;25.30;24.50;;;;;;4997039;28;20271;-83
2023/07/14 11:57:00;;;;;;;3.22;2.10;;;25.30;25.50;;;;;;4986584;28;20191;-85
2023/07/14 11:59:28;;;;;;;2.55;2.22;;;25.50;33.20;;;;;;4977181;28;20741;-86
2023/07/14 12:01:59;;;;;;;2.47;2.28;;;25.60;34.30;;;;;;4982064;28;20207;-82
2023/07/14 12:04:25;;;;;;;2.35;2.13;;;;;;;;;;4979050;28;20200;-84
2023/07/14 12:07:03;;;;;;;2.40;2.03;;;26.40;18.50;;;;;;4976043;28;20704;-84
2023/07/14 12:09:33;;;;;;;2.95;2.13;;;;;;;;;;4993688;28;20203;-85
2023/07/14 12:11:59;;;;;;;2.67;2.03;;;;;;;;;;4974395;28;20207;-86
2023/07/14 12:14:31;;;;;;;2.50;2.00;;;27.00;1.00;;;;;;4984871;28;20591;-83
2023/07/14 12:16:58;;;;;;;4.38;2.28;;;27.20;23.50;;;;;;4995428;28;20214;-84
2023/07/14 12:19:33;;;;;;;2.45;2.22;;;27.50;1.00;;;;;;4994888;28;20898;-85
2023/07/14 12:22:08;;;;;;;3.03;2.42;;;27.40;1.00;;;;;;5004521;28;20214;-82
2023/07/14 12:24:39;;;;;;;3.00;2.80;;;27.30;28.20;;;;;;4995993;28;20618;-83
2023/07/14 12:27:27;;;;;;;3.45;2.42;;;27.20;47.20;;;;;;4975985;28;20751;-84
2023/07/14 12:30:09;;;;;;;2.90;2.50;;;27.30;22.10;;;;;;4990263;28;20235;-80
2023/07/14 12:32:35;;;;;;;3.97;2.30;;;27.20;1.00;;;;;;4977567;28;20658;-85
2023/07/14 12:35:01;;;;;;;2.30;2.10;;;;;;;;;;4989144;28;20305;-83
2023/07/14 12:37:32;;;;;;;2.22;2.03;;;25.20;27.00;;;;;;4996568;28;20275;-85
2023/07/14 12:39:59;;;;;;;3.42;2.42;;;;;;;;;;4984444;28;20191;-84
2023/07/14 12:42:25;;;;;;;2.45;2.20;;;;;;;;;;4980621;28;20266;-85
2023/07/14 12:44:54;;;;;;;3.45;2.47;;;26.50;1.00;;;;;;4985168;28;20604;-85
2023/07/14 12:47:20;;;;;;;5.45;2.60;;;;;;;;;;4978538;28;20176;-84
2023/07/14 12:49:49;;;;;;;4.00;2.60;;;26.80;22.60;;;;;;4983666;28;20176;-82
2023/07/14 12:52:15;;;;;;;3.78;2.60;;;;;;;;;;4977678;28;20202;-84
2023/07/14 12:54:46;;;;;;;3.22;2.35;;;27.20;1.00;;;;;;4997641;28;20203;-82
2023/07/14 12:57:14;;;;;;;3.17;2.83;;;26.90;18.60;;;;;;4982847;28;20774;-82
2023/07/14 12:59:40;;;;;;;2.88;2.58;;;;;;;;;;4982114;28;20196;-83
2023/07/14 13:02:12;;;;;;;3.15;2.80;;;26.50;1.00;;;;;;4979783;28;20311;-82
2023/07/14 13:04:38;;;;;;;3.40;2.78;;;26.70;1.00;;;;;;4997972;28;20193;-85
2023/07/14 13:07:10;;;;;;;4.25;2.60;;;26.80;1.00;;;;;;4973348;28;20188;-84
2023/07/14 13:09:37;;;;;;;3.60;2.72;;;27.00;1.00;;;;;;4983899;28;20186;-83
2023/07/14 13:12:03;;;;;;;3.17;2.55;;;26.90;1.00;;;;;;4995966;28;20191;-85
2023/07/14 13:14:41;;;;;;;2.92;2.50;;;27.20;1.00;;;;;;4982570;28;20215;-83
2023/07/14 13:17:17;;;;;;;3.80;2.65;;;27.50;1.00;;;;;;4975864;28;20196;-85
2023/07/14 13:19:48;;;;;;;3.63;2.75;;;27.50;1.00;;;;;;4980558;28;20187;-82
2023/07/14 13:22:29;;;;;;;3.15;2.53;;;27.70;1.00;;;;;;4983114;28;20227;-85
2023/07/14 13:25:19;;;;;;;2.90;2.70;;;27.40;1.00;;;;;;5003364;28;20202;-84
2023/07/14 13:27:45;;;;;;;4.45;2.90;;;27.10;1.00;;;;;;4981898;28;20187;-84
2023/07/14 13:30:14;;;;;;;4.00;2.97;;;27.00;1.00;;;;;;4977814;28;20188;-82
2023/07/14 13:32:39;;;;;;;3.58;3.00;;;26.80;1.00;;;;;;5000927;28;20492;-81
2023/07/14 13:35:14;;;;;;;3.20;2.80;;;27.10;1.00;;;;;;4980617;28;20216;-84
2023/07/14 13:37:40;;;;;;;3.08;2.78;;;;;;;;;;4986459;28;20186;-82
2023/07/14 13:40:18;;;;;;;3.65;2.67;;;26.90;1.00;;;;;;4981923;28;20192;-84
2023/07/14 13:42:49;;;;;;;5.00;2.90;;;27.40;27.30;;;;;;5001408;28;20214;-83